sensor_id;sensor_type;location;lat;lon;timestamp;pressure;altitude;pressure_sealevel;temperature;humidity
76022;BME280;64718;52.124;6.226;2023-09-07T00:02:26;102009.94;;;16.46;100.00
76022;BME280;64718;52.124;6.226;2023-09-07T00:04:52;102013.56;;;16.43;100.00
76022;BME280;64718;52.124;6.226;2023-09-07T00:07:19;102012.16;;;16.36;100.00
76022;BME280;64718;52.124;6.226;2023-09-07T00:09:45;102003.34;;;16.37;100.00
76022;BME280;64718;52.124;6.226;2023-09-07T00:12:12;102005.03;;;16.38;100.00
76022;BME280;64718;52.124;6.226;2023-09-07T00:14:38;102001.88;;;16.32;100.00
76022;BME280;64718;52.124;6.226;2023-09-07T00:17:05;102006.34;;;16.30;100.00
76022;BME280;64718;52.124;6.226;2023-09-07T00:19:33;102000.59;;;16.22;100.00
76022;BME280;64718;52.124;6.226;2023-09-07T00:22:02;102003.31;;;16.20;100.00
76022;BME280;64718;52.124;6.226;2023-09-07T00:24:30;102006.91;;;16.18;100.00
76022;BME280;64718;52.124;6.226;2023-09-07T00:26:56;102000.88;;;16.16;100.00
76022;BME280;64718;52.124;6.226;2023-09-07T00:29:23;102005.19;;;16.17;100.00
76022;BME280;64718;52.124;6.226;2023-09-07T00:31:49;102006.03;;;16.17;100.00
76022;BME280;64718;52.124;6.226;2023-09-07T00:34:16;102004.34;;;16.16;100.00
76022;BME280;64718;52.124;6.226;2023-09-07T00:36:44;102007.19;;;16.11;100.00
76022;BME280;64718;52.124;6.226;2023-09-07T00:39:10;102004.06;;;16.03;100.00
76022;BME280;64718;52.124;6.226;2023-09-07T00:41:37;102008.31;;;16.06;100.00
76022;BME280;64718;52.124;6.226;2023-09-07T00:44:04;102003.06;;;16.06;100.00
76022;BME280;64718;52.124;6.226;2023-09-07T00:46:31;102002.94;;;16.09;100.00
76022;BME280;64718;52.124;6.226;2023-09-07T00:48:58;102005.34;;;16.13;100.00
76022;BME280;64718;52.124;6.226;2023-09-07T00:51:24;102008.88;;;16.12;100.00
76022;BME280;64718;52.124;6.226;2023-09-07T00:53:53;102008.66;;;16.17;100.00
76022;BME280;64718;52.124;6.226;2023-09-07T00:56:19;102000.94;;;16.14;100.00
76022;BME280;64718;52.124;6.226;2023-09-07T00:58:46;101995.13;;;16.07;100.00
76022;BME280;64718;52.124;6.226;2023-09-07T01:01:13;101995.84;;;16.11;100.00
76022;BME280;64718;52.124;6.226;2023-09-07T01:03:39;102000.88;;;16.16;100.00
76022;BME280;64718;52.124;6.226;2023-09-07T01:06:12;101993.66;;;16.21;100.00
76022;BME280;64718;52.124;6.226;2023-09-07T01:08:42;101991.16;;;16.18;100.00
76022;BME280;64718;52.124;6.226;2023-09-07T01:11:15;101989.50;;;16.15;100.00
76022;BME280;64718;52.124;6.226;2023-09-07T01:13:42;101991.44;;;16.11;100.00
76022;BME280;64718;52.124;6.226;2023-09-07T01:16:10;101988.97;;;16.08;100.00
76022;BME280;64718;52.124;6.226;2023-09-07T01:18:37;101986.75;;;15.99;100.00
76022;BME280;64718;52.124;6.226;2023-09-07T01:21:05;101988.91;;;15.91;100.00
76022;BME280;64718;52.124;6.226;2023-09-07T01:23:35;101988.19;;;15.88;100.00
76022;BME280;64718;52.124;6.226;2023-09-07T01:26:02;101991.09;;;15.81;100.00
76022;BME280;64718;52.124;6.226;2023-09-07T01:28:29;101994.94;;;15.74;100.00
76022;BME280;64718;52.124;6.226;2023-09-07T01:30:56;101990.31;;;15.79;100.00
76022;BME280;64718;52.124;6.226;2023-09-07T01:33:23;101987.56;;;15.82;100.00
76022;BME280;64718;52.124;6.226;2023-09-07T01:35:50;101978.69;;;15.85;100.00
76022;BME280;64718;52.124;6.226;2023-09-07T01:38:16;101985.91;;;15.80;100.00
76022;BME280;64718;52.124;6.226;2023-09-07T01:40:44;101988.19;;;15.69;100.00
76022;BME280;64718;52.124;6.226;2023-09-07T01:43:11;101984.19;;;15.60;100.00
76022;BME280;64718;52.124;6.226;2023-09-07T01:45:37;101976.06;;;15.46;100.00
76022;BME280;64718;52.124;6.226;2023-09-07T01:48:07;101980.66;;;15.41;100.00
76022;BME280;64718;52.124;6.226;2023-09-07T01:50:34;101983.53;;;15.35;100.00
76022;BME280;64718;52.124;6.226;2023-09-07T01:53:00;101981.25;;;15.27;100.00
76022;BME280;64718;52.124;6.226;2023-09-07T01:55:28;101986.44;;;15.29;100.00
76022;BME280;64718;52.124;6.226;2023-09-07T01:57:56;101985.94;;;15.21;100.00
76022;BME280;64718;52.124;6.226;2023-09-07T02:00:23;101988.16;;;15.09;100.00
76022;BME280;64718;52.124;6.226;2023-09-07T02:02:49;101983.91;;;15.07;100.00
76022;BME280;64718;52.124;6.226;2023-09-07T02:05:16;101990.66;;;15.12;100.00
76022;BME280;64718;52.124;6.226;2023-09-07T02:07:43;101994.91;;;15.15;100.00
76022;BME280;64718;52.124;6.226;2023-09-07T02:10:10;101987.81;;;15.17;100.00
76022;BME280;64718;52.124;6.226;2023-09-07T02:12:36;101990.00;;;15.07;100.00
76022;BME280;64718;52.124;6.226;2023-09-07T02:15:05;101990.91;;;15.06;100.00
76022;BME280;64718;52.124;6.226;2023-09-07T02:17:32;101985.91;;;15.00;100.00
76022;BME280;64718;52.124;6.226;2023-09-07T02:19:59;101990.06;;;15.06;100.00
76022;BME280;64718;52.124;6.226;2023-09-07T02:22:25;101989.50;;;14.98;100.00
76022;BME280;64718;52.124;6.226;2023-09-07T02:24:52;101982.81;;;14.91;100.00
76022;BME280;64718;52.124;6.226;2023-09-07T02:27:18;101981.72;;;14.96;100.00
76022;BME280;64718;52.124;6.226;2023-09-07T02:29:45;101979.94;;;14.97;100.00
76022;BME280;64718;52.124;6.226;2023-09-07T02:32:13;101975.69;;;14.94;100.00
76022;BME280;64718;52.124;6.226;2023-09-07T02:34:40;101979.94;;;14.97;100.00
76022;BME280;64718;52.124;6.226;2023-09-07T02:37:07;101974.19;;;14.88;100.00
76022;BME280;64718;52.124;6.226;2023-09-07T02:39:34;101975.22;;;14.84;100.00
76022;BME280;64718;52.124;6.226;2023-09-07T02:42:00;101972.88;;;14.78;100.00
76022;BME280;64718;52.124;6.226;2023-09-07T02:44:27;101971.34;;;14.73;100.00
76022;BME280;64718;52.124;6.226;2023-09-07T02:46:54;101974.84;;;14.73;100.00
76022;BME280;64718;52.124;6.226;2023-09-07T02:49:22;101974.50;;;14.61;100.00
76022;BME280;64718;52.124;6.226;2023-09-07T02:51:48;101978.81;;;14.62;100.00
76022;BME280;64718;52.124;6.226;2023-09-07T02:54:15;101970.75;;;14.66;100.00
76022;BME280;64718;52.124;6.226;2023-09-07T02:56:41;101967.34;;;14.64;100.00
76022;BME280;64718;52.124;6.226;2023-09-07T02:59:08;101980.63;;;14.60;100.00
76022;BME280;64718;52.124;6.226;2023-09-07T03:01:35;101979.91;;;14.56;100.00
76022;BME280;64718;52.124;6.226;2023-09-07T03:04:01;101975.66;;;14.53;100.00
76022;BME280;64718;52.124;6.226;2023-09-07T03:06:30;101980.97;;;14.52;100.00
76022;BME280;64718;52.124;6.226;2023-09-07T03:08:57;101982.59;;;14.54;100.00
76022;BME280;64718;52.124;6.226;2023-09-07T03:11:24;101979.38;;;14.48;100.00
76022;BME280;64718;52.124;6.226;2023-09-07T03:13:50;101975.38;;;14.38;100.00
76022;BME280;64718;52.124;6.226;2023-09-07T03:16:17;101969.22;;;14.39;100.00
76022;BME280;64718;52.124;6.226;2023-09-07T03:18:44;101974.31;;;14.43;100.00
76022;BME280;64718;52.124;6.226;2023-09-07T03:21:11;101975.38;;;14.38;100.00
76022;BME280;64718;52.124;6.226;2023-09-07T03:23:40;101977.38;;;14.31;100.00
76022;BME280;64718;52.124;6.226;2023-09-07T03:26:09;101989.00;;;14.24;100.00
76022;BME280;64718;52.124;6.226;2023-09-07T03:28:36;101989.19;;;14.19;100.00
76022;BME280;64718;52.124;6.226;2023-09-07T03:31:02;101988.03;;;14.27;100.00
76022;BME280;64718;52.124;6.226;2023-09-07T03:33:30;101986.16;;;14.30;100.00
76022;BME280;64718;52.124;6.226;2023-09-07T03:35:56;101982.63;;;14.31;100.00
76022;BME280;64718;52.124;6.226;2023-09-07T03:38:24;101986.31;;;14.25;100.00
76022;BME280;64718;52.124;6.226;2023-09-07T03:40:52;101989.91;;;14.23;100.00
76022;BME280;64718;52.124;6.226;2023-09-07T03:43:18;101988.69;;;14.32;100.00
76022;BME280;64718;52.124;6.226;2023-09-07T03:45:45;101987.06;;;14.29;100.00
76022;BME280;64718;52.124;6.226;2023-09-07T03:48:12;101990.09;;;14.18;100.00
76022;BME280;64718;52.124;6.226;2023-09-07T03:50:38;101990.09;;;14.18;100.00
76022;BME280;64718;52.124;6.226;2023-09-07T03:53:05;101986.31;;;14.25;100.00
76022;BME280;64718;52.124;6.226;2023-09-07T03:55:40;101984.44;;;14.29;100.00
76022;BME280;64718;52.124;6.226;2023-09-07T03:58:08;101988.41;;;14.39;100.00
76022;BME280;64718;52.124;6.226;2023-09-07T04:00:35;101974.22;;;14.45;100.00
76022;BME280;64718;52.124;6.226;2023-09-07T04:03:01;101975.78;;;14.50;100.00
76022;BME280;64718;52.124;6.226;2023-09-07T04:05:28;101977.22;;;14.58;100.00
76022;BME280;64718;52.124;6.226;2023-09-07T04:07:55;101979.78;;;14.59;100.00
76022;BME280;64718;52.124;6.226;2023-09-07T04:10:22;101974.63;;;14.58;100.00
76022;BME280;64718;52.124;6.226;2023-09-07T04:12:49;101983.25;;;14.60;100.00
76022;BME280;64718;52.124;6.226;2023-09-07T04:15:17;101976.44;;;14.55;100.00
76022;BME280;64718;52.124;6.226;2023-09-07T04:17:43;101978.22;;;14.55;100.00
76022;BME280;64718;52.124;6.226;2023-09-07T04:20:10;101979.31;;;14.49;100.00
76022;BME280;64718;52.124;6.226;2023-09-07T04:22:38;101981.44;;;14.38;100.00
76022;BME280;64718;52.124;6.226;2023-09-07T04:25:05;101980.00;;;14.31;100.00
76022;BME280;64718;52.124;6.226;2023-09-07T04:27:32;101980.53;;;14.17;100.00
76022;BME280;64718;52.124;6.226;2023-09-07T04:29:58;101978.84;;;14.16;100.00
76022;BME280;64718;52.124;6.226;2023-09-07T04:32:26;101978.72;;;14.19;100.00
76022;BME280;64718;52.124;6.226;2023-09-07T04:34:54;101979.56;;;14.20;100.00
76022;BME280;64718;52.124;6.226;2023-09-07T04:37:21;101975.44;;;14.14;100.00
76022;BME280;64718;52.124;6.226;2023-09-07T04:39:50;101974.22;;;14.01;100.00
76022;BME280;64718;52.124;6.226;2023-09-07T04:42:17;101978.94;;;13.91;100.00
76022;BME280;64718;52.124;6.226;2023-09-07T04:44:44;101978.16;;;13.89;100.00
76022;BME280;64718;52.124;6.226;2023-09-07T04:47:10;101978.28;;;13.85;100.00
76022;BME280;64718;52.124;6.226;2023-09-07T04:49:38;101984.63;;;13.79;100.00
76022;BME280;64718;52.124;6.226;2023-09-07T04:52:05;101985.69;;;13.74;100.00
76022;BME280;64718;52.124;6.226;2023-09-07T04:54:32;101984.72;;;13.76;100.00
76022;BME280;64718;52.124;6.226;2023-09-07T04:56:58;101984.09;;;13.70;100.00
76022;BME280;64718;52.124;6.226;2023-09-07T04:59:25;101985.00;;;13.69;100.00
76022;BME280;64718;52.124;6.226;2023-09-07T05:01:51;101991.84;;;13.73;100.00
76022;BME280;64718;52.124;6.226;2023-09-07T05:04:18;101998.78;;;13.74;100.00
76022;BME280;64718;52.124;6.226;2023-09-07T05:06:46;101993.88;;;13.65;100.00
76022;BME280;64718;52.124;6.226;2023-09-07T05:09:13;101998.94;;;13.69;100.00
76022;BME280;64718;52.124;6.226;2023-09-07T05:11:39;102000.66;;;13.70;100.00
76022;BME280;64718;52.124;6.226;2023-09-07T05:14:06;102008.66;;;13.66;100.00
76022;BME280;64718;52.124;6.226;2023-09-07T05:16:32;102008.53;;;13.69;100.00
76022;BME280;64718;52.124;6.226;2023-09-07T05:18:59;102006.63;;;13.74;100.00
76022;BME280;64718;52.124;6.226;2023-09-07T05:21:26;102010.81;;;13.78;100.00
76022;BME280;64718;52.124;6.226;2023-09-07T05:23:53;102009.16;;;13.75;100.00
76022;BME280;64718;52.124;6.226;2023-09-07T05:26:21;102011.50;;;13.83;100.00
76022;BME280;64718;52.124;6.226;2023-09-07T05:28:49;102017.16;;;13.96;100.00
76022;BME280;64718;52.124;6.226;2023-09-07T05:31:16;102013.69;;;13.95;100.00
76022;BME280;64718;52.124;6.226;2023-09-07T05:33:42;102011.56;;;14.05;100.00
76022;BME280;64718;52.124;6.226;2023-09-07T05:36:09;102012.91;;;14.15;100.00
76022;BME280;64718;52.124;6.226;2023-09-07T05:38:36;102011.81;;;14.20;100.00
76022;BME280;64718;52.124;6.226;2023-09-07T05:41:04;102014.19;;;14.27;100.00
76022;BME280;64718;52.124;6.226;2023-09-07T05:43:31;102018.88;;;14.40;100.00
76022;BME280;64718;52.124;6.226;2023-09-07T05:45:57;102027.97;;;14.55;100.00
76022;BME280;64718;52.124;6.226;2023-09-07T05:48:24;102028.56;;;14.62;100.00
76022;BME280;64718;52.124;6.226;2023-09-07T05:50:50;102032.50;;;14.72;100.00
76022;BME280;64718;52.124;6.226;2023-09-07T05:53:18;102028.03;;;14.96;100.00
76022;BME280;64718;52.124;6.226;2023-09-07T05:55:45;102022.22;;;15.70;100.00
76022;BME280;64718;52.124;6.226;2023-09-07T05:58:13;102022.28;;;17.32;100.00
76022;BME280;64718;52.124;6.226;2023-09-07T06:00:40;102011.94;;;18.58;100.00
76022;BME280;64718;52.124;6.226;2023-09-07T06:03:07;102010.13;;;19.91;100.00
76022;BME280;64718;52.124;6.226;2023-09-07T06:05:34;102007.19;;;20.91;93.85
76022;BME280;64718;52.124;6.226;2023-09-07T06:08:01;102008.13;;;21.55;87.62
76022;BME280;64718;52.124;6.226;2023-09-07T06:10:28;102008.03;;;21.93;84.69
76022;BME280;64718;52.124;6.226;2023-09-07T06:12:55;102007.88;;;22.56;81.74
76022;BME280;64718;52.124;6.226;2023-09-07T06:15:23;102013.34;;;22.77;79.60
76022;BME280;64718;52.124;6.226;2023-09-07T06:17:49;102016.97;;;23.11;75.12
76022;BME280;64718;52.124;6.226;2023-09-07T06:20:16;102009.50;;;23.74;75.04
76022;BME280;64718;52.124;6.226;2023-09-07T06:22:44;102012.94;;;24.30;71.17
76022;BME280;64718;52.124;6.226;2023-09-07T06:25:11;102013.41;;;24.13;68.99
76022;BME280;64718;52.124;6.226;2023-09-07T06:27:37;102017.13;;;24.44;68.76
76022;BME280;64718;52.124;6.226;2023-09-07T06:30:05;102008.75;;;23.60;69.92
76022;BME280;64718;52.124;6.226;2023-09-07T06:32:33;102014.91;;;24.49;66.88
76022;BME280;64718;52.124;6.226;2023-09-07T06:35:00;102015.13;;;24.57;67.35
76022;BME280;64718;52.124;6.226;2023-09-07T06:37:27;102015.31;;;24.65;65.87
76022;BME280;64718;52.124;6.226;2023-09-07T06:39:54;102015.53;;;25.05;65.44
76022;BME280;64718;52.124;6.226;2023-09-07T06:42:20;102018.75;;;24.88;64.33
76022;BME280;64718;52.124;6.226;2023-09-07T06:44:47;102024.00;;;25.41;62.21
76022;BME280;64718;52.124;6.226;2023-09-07T06:47:14;102023.34;;;25.48;60.32
76022;BME280;64718;52.124;6.226;2023-09-07T06:49:41;102028.44;;;25.31;61.38
76022;BME280;64718;52.124;6.226;2023-09-07T06:52:08;102027.81;;;24.85;60.81
76022;BME280;64718;52.124;6.226;2023-09-07T06:54:35;102027.91;;;25.37;62.02
76022;BME280;64718;52.124;6.226;2023-09-07T06:57:01;102025.53;;;25.43;61.16
76022;BME280;64718;52.124;6.226;2023-09-07T06:59:28;102029.56;;;25.89;60.07
76022;BME280;64718;52.124;6.226;2023-09-07T07:01:54;102020.94;;;26.06;57.52
76022;BME280;64718;52.124;6.226;2023-09-07T07:04:21;102027.88;;;25.58;59.03
76022;BME280;64718;52.124;6.226;2023-09-07T07:06:49;102022.34;;;26.20;57.64
76022;BME280;64718;52.124;6.226;2023-09-07T07:09:16;102021.84;;;25.86;58.38
76022;BME280;64718;52.124;6.226;2023-09-07T07:11:42;102028.31;;;26.53;55.98
76022;BME280;64718;52.124;6.226;2023-09-07T07:14:09;102026.50;;;26.72;55.76
76022;BME280;64718;52.124;6.226;2023-09-07T07:16:36;102035.09;;;26.66;55.93
76022;BME280;64718;52.124;6.226;2023-09-07T07:19:03;102025.34;;;26.36;56.68
76022;BME280;64718;52.124;6.226;2023-09-07T07:21:30;102021.00;;;27.13;54.68
76022;BME280;64718;52.124;6.226;2023-09-07T07:23:57;102024.00;;;27.47;52.04
76022;BME280;64718;52.124;6.226;2023-09-07T07:26:24;102016.81;;;27.00;53.53
76022;BME280;64718;52.124;6.226;2023-09-07T07:28:50;102015.78;;;27.11;52.93
76022;BME280;64718;52.124;6.226;2023-09-07T07:31:17;102013.63;;;27.34;52.00
76022;BME280;64718;52.124;6.226;2023-09-07T07:33:43;102012.84;;;26.46;54.84
76022;BME280;64718;52.124;6.226;2023-09-07T07:36:10;102010.03;;;26.96;54.06
76022;BME280;64718;52.124;6.226;2023-09-07T07:38:36;102011.69;;;27.26;53.04
76022;BME280;64718;52.124;6.226;2023-09-07T07:41:04;102019.53;;;27.37;52.57
76022;BME280;64718;52.124;6.226;2023-09-07T07:43:32;102018.19;;;26.85;54.79
76022;BME280;64718;52.124;6.226;2023-09-07T07:45:58;102024.53;;;27.03;53.83
76022;BME280;64718;52.124;6.226;2023-09-07T07:48:25;102028.44;;;27.75;51.15
76022;BME280;64718;52.124;6.226;2023-09-07T07:50:53;102027.38;;;27.86;51.54
76022;BME280;64718;52.124;6.226;2023-09-07T07:53:20;102027.72;;;28.00;49.74
76022;BME280;64718;52.124;6.226;2023-09-07T07:55:47;102030.34;;;28.10;50.28
76022;BME280;64718;52.124;6.226;2023-09-07T07:58:15;102022.19;;;27.84;49.65
76022;BME280;64718;52.124;6.226;2023-09-07T08:00:41;102024.38;;;28.16;50.01
76022;BME280;64718;52.124;6.226;2023-09-07T08:03:10;102024.72;;;28.31;48.47
76022;BME280;64718;52.124;6.226;2023-09-07T08:05:36;102027.97;;;28.52;49.79
76022;BME280;64718;52.124;6.226;2023-09-07T08:08:05;102019.75;;;28.72;47.66
76022;BME280;64718;52.124;6.226;2023-09-07T08:10:33;102023.13;;;28.74;47.45
76022;BME280;64718;52.124;6.226;2023-09-07T08:13:01;102020.06;;;28.86;46.44
76022;BME280;64718;52.124;6.226;2023-09-07T08:15:29;102021.81;;;28.78;47.07
76022;BME280;64718;52.124;6.226;2023-09-07T08:17:56;102022.44;;;28.89;47.29
76022;BME280;64718;52.124;6.226;2023-09-07T08:20:24;102016.78;;;28.75;47.50
76022;BME280;64718;52.124;6.226;2023-09-07T08:22:51;102016.25;;;28.89;47.71
76022;BME280;64718;52.124;6.226;2023-09-07T08:25:18;102008.53;;;28.68;48.74
76022;BME280;64718;52.124;6.226;2023-09-07T08:27:45;102011.56;;;28.73;48.84
76022;BME280;64718;52.124;6.226;2023-09-07T08:30:13;102014.66;;;28.96;48.02
76022;BME280;64718;52.124;6.226;2023-09-07T08:32:42;102010.44;;;28.93;48.13
76022;BME280;64718;52.124;6.226;2023-09-07T08:35:10;102005.34;;;29.08;47.31
76022;BME280;64718;52.124;6.226;2023-09-07T08:37:38;102000.03;;;29.16;47.88
76022;BME280;64718;52.124;6.226;2023-09-07T08:40:05;102003.09;;;28.95;47.87
76022;BME280;64718;52.124;6.226;2023-09-07T08:42:34;102004.69;;;28.88;48.46
76022;BME280;64718;52.124;6.226;2023-09-07T08:45:02;101996.88;;;29.21;48.79
76022;BME280;64718;52.124;6.226;2023-09-07T08:47:32;102001.09;;;28.98;47.89
76022;BME280;64718;52.124;6.226;2023-09-07T08:50:01;102000.06;;;29.24;47.98
76022;BME280;64718;52.124;6.226;2023-09-07T08:52:28;101997.84;;;29.80;47.02
76022;BME280;64718;52.124;6.226;2023-09-07T08:54:56;102002.69;;;29.42;47.28
76022;BME280;64718;52.124;6.226;2023-09-07T08:57:24;102000.25;;;29.49;47.24
76022;BME280;64718;52.124;6.226;2023-09-07T08:59:51;102003.84;;;29.40;47.88
76022;BME280;64718;52.124;6.226;2023-09-07T09:02:17;102000.97;;;29.59;46.37
76022;BME280;64718;52.124;6.226;2023-09-07T09:04:44;102002.56;;;29.44;48.54
76022;BME280;64718;52.124;6.226;2023-09-07T09:07:12;102000.47;;;29.38;48.96
76022;BME280;64718;52.124;6.226;2023-09-07T09:09:39;101999.19;;;29.76;47.70
76022;BME280;64718;52.124;6.226;2023-09-07T09:12:09;101989.78;;;29.72;48.73
76022;BME280;64718;52.124;6.226;2023-09-07T09:14:36;102005.31;;;29.52;46.86
76022;BME280;64718;52.124;6.226;2023-09-07T09:17:03;101997.59;;;29.31;46.94
76022;BME280;64718;52.124;6.226;2023-09-07T09:19:33;101995.00;;;29.13;48.08
76022;BME280;64718;52.124;6.226;2023-09-07T09:22:00;101998.66;;;28.69;49.70
76022;BME280;64718;52.124;6.226;2023-09-07T09:24:32;101994.06;;;28.61;50.91
76022;BME280;64718;52.124;6.226;2023-09-07T09:27:00;101990.25;;;28.28;50.53
76022;BME280;64718;52.124;6.226;2023-09-07T09:29:26;101992.56;;;28.13;50.48
76022;BME280;64718;52.124;6.226;2023-09-07T09:31:53;101982.25;;;28.18;50.76
76022;BME280;64718;52.124;6.226;2023-09-07T09:34:20;101988.56;;;28.27;50.50
76022;BME280;64718;52.124;6.226;2023-09-07T09:36:47;101980.38;;;28.28;52.82
76022;BME280;64718;52.124;6.226;2023-09-07T09:39:22;101983.88;;;28.29;51.15
76022;BME280;64718;52.124;6.226;2023-09-07T09:41:51;101978.75;;;28.18;51.31
76022;BME280;64718;52.124;6.226;2023-09-07T09:44:20;101984.38;;;27.97;52.80
76022;BME280;64718;52.124;6.226;2023-09-07T09:46:47;101985.19;;;27.42;52.84
76022;BME280;64718;52.124;6.226;2023-09-07T09:49:16;101984.25;;;27.34;52.91
76022;BME280;64718;52.124;6.226;2023-09-07T09:51:45;101967.91;;;27.37;53.21
76022;BME280;64718;52.124;6.226;2023-09-07T09:54:12;101975.69;;;27.30;53.30
76022;BME280;64718;52.124;6.226;2023-09-07T09:56:39;101974.84;;;27.30;55.38
76022;BME280;64718;52.124;6.226;2023-09-07T09:59:07;101969.59;;;27.38;54.55
76022;BME280;64718;52.124;6.226;2023-09-07T10:01:38;101969.78;;;27.54;53.83
76022;BME280;64718;52.124;6.226;2023-09-07T10:04:08;101968.59;;;27.76;53.59
76022;BME280;64718;52.124;6.226;2023-09-07T10:06:36;101968.69;;;27.84;53.34
76022;BME280;64718;52.124;6.226;2023-09-07T10:09:05;101964.94;;;27.77;53.27
76022;BME280;64718;52.124;6.226;2023-09-07T10:11:33;101963.13;;;27.78;53.38
76022;BME280;64718;52.124;6.226;2023-09-07T10:14:00;101961.06;;;27.89;53.20
76022;BME280;64718;52.124;6.226;2023-09-07T10:16:40;101951.75;;;28.11;52.38
76022;BME280;64718;52.124;6.226;2023-09-07T10:19:14;101964.13;;;28.12;52.95
76022;BME280;64718;52.124;6.226;2023-09-07T10:21:40;101956.03;;;28.22;52.04
76022;BME280;64718;52.124;6.226;2023-09-07T10:24:08;101958.66;;;28.31;50.83
76022;BME280;64718;52.124;6.226;2023-09-07T10:26:34;101954.16;;;28.32;49.66
76022;BME280;64718;52.124;6.226;2023-09-07T10:29:02;101948.41;;;28.45;52.53
76022;BME280;64718;52.124;6.226;2023-09-07T10:31:32;101952.16;;;28.52;51.49
76022;BME280;64718;52.124;6.226;2023-09-07T10:34:08;101945.09;;;28.69;51.52
76022;BME280;64718;52.124;6.226;2023-09-07T10:36:35;101948.38;;;28.62;51.17
76022;BME280;64718;52.124;6.226;2023-09-07T10:39:03;101944.50;;;28.57;49.67
76022;BME280;64718;52.124;6.226;2023-09-07T10:41:39;101942.41;;;28.69;50.67
76022;BME280;64718;52.124;6.226;2023-09-07T10:44:06;101941.78;;;28.75;49.73
76022;BME280;64718;52.124;6.226;2023-09-07T10:46:34;101937.41;;;28.74;49.24
76022;BME280;64718;52.124;6.226;2023-09-07T10:49:00;101938.88;;;29.12;50.58
76022;BME280;64718;52.124;6.226;2023-09-07T10:51:28;101924.88;;;29.26;48.60
76022;BME280;64718;52.124;6.226;2023-09-07T10:53:55;101933.16;;;29.07;48.43
76022;BME280;64718;52.124;6.226;2023-09-07T10:56:24;101930.75;;;28.95;48.27
76022;BME280;64718;52.124;6.226;2023-09-07T10:58:53;101919.44;;;29.10;48.74
76022;BME280;64718;52.124;6.226;2023-09-07T11:01:20;101924.88;;;29.26;49.48
76022;BME280;64718;52.124;6.226;2023-09-07T11:03:48;101917.97;;;29.23;48.48
76022;BME280;64718;52.124;6.226;2023-09-07T11:06:18;101909.63;;;29.26;50.46
76022;BME280;64718;52.124;6.226;2023-09-07T11:08:46;101913.50;;;29.32;49.76
76022;BME280;64718;52.124;6.226;2023-09-07T11:11:12;101906.53;;;29.47;50.80
76022;BME280;64718;52.124;6.226;2023-09-07T11:13:39;101904.13;;;29.36;47.39
76022;BME280;64718;52.124;6.226;2023-09-07T11:16:07;101890.59;;;29.46;46.65
76022;BME280;64718;52.124;6.226;2023-09-07T11:18:34;101901.03;;;29.49;46.27
76022;BME280;64718;52.124;6.226;2023-09-07T11:21:03;101893.19;;;29.55;47.57
76022;BME280;64718;52.124;6.226;2023-09-07T11:23:32;101894.53;;;29.59;45.82
76022;BME280;64718;52.124;6.226;2023-09-07T11:26:04;101890.03;;;29.68;47.15
76022;BME280;64718;52.124;6.226;2023-09-07T11:28:31;101895.09;;;29.96;46.66
76022;BME280;64718;52.124;6.226;2023-09-07T11:30:58;101886.25;;;30.11;45.56
76022;BME280;64718;52.124;6.226;2023-09-07T11:33:26;101892.72;;;29.92;44.07
76022;BME280;64718;52.124;6.226;2023-09-07T11:35:53;101882.34;;;29.98;44.79
76022;BME280;64718;52.124;6.226;2023-09-07T11:38:21;101886.94;;;30.13;46.07
76022;BME280;64718;52.124;6.226;2023-09-07T11:40:48;101888.78;;;30.29;46.54
76022;BME280;64718;52.124;6.226;2023-09-07T11:43:16;101878.19;;;30.28;46.16
76022;BME280;64718;52.124;6.226;2023-09-07T11:45:45;101878.69;;;30.39;44.45
76022;BME280;64718;52.124;6.226;2023-09-07T11:48:12;101881.19;;;30.41;47.77
76022;BME280;64718;52.124;6.226;2023-09-07T11:50:39;101877.34;;;30.43;45.40
76022;BME280;64718;52.124;6.226;2023-09-07T11:53:06;101866.97;;;30.24;45.60
76022;BME280;64718;52.124;6.226;2023-09-07T11:55:35;101868.25;;;30.52;46.00
76022;BME280;64718;52.124;6.226;2023-09-07T11:58:03;101864.06;;;30.42;44.75
76022;BME280;64718;52.124;6.226;2023-09-07T12:00:30;101870.94;;;30.61;46.53
76022;BME280;64718;52.124;6.226;2023-09-07T12:02:57;101867.91;;;30.56;43.83
76022;BME280;64718;52.124;6.226;2023-09-07T12:05:23;101858.53;;;30.68;47.64
76022;BME280;64718;52.124;6.226;2023-09-07T12:07:50;101860.38;;;30.75;43.86
76022;BME280;64718;52.124;6.226;2023-09-07T12:10:17;101863.91;;;30.68;44.30
76022;BME280;64718;52.124;6.226;2023-09-07T12:12:45;101853.13;;;30.76;44.21
76022;BME280;64718;52.124;6.226;2023-09-07T12:15:11;101854.28;;;30.81;43.63
76022;BME280;64718;52.124;6.226;2023-09-07T12:17:38;101848.06;;;30.89;45.46
76022;BME280;64718;52.124;6.226;2023-09-07T12:20:06;101859.69;;;30.73;42.83
76022;BME280;64718;52.124;6.226;2023-09-07T12:22:35;101848.78;;;30.75;43.92
76022;BME280;64718;52.124;6.226;2023-09-07T12:25:03;101844.56;;;30.80;43.13
76022;BME280;64718;52.124;6.226;2023-09-07T12:27:32;101844.22;;;30.83;42.79
76022;BME280;64718;52.124;6.226;2023-09-07T12:30:00;101844.09;;;31.08;44.51
76022;BME280;64718;52.124;6.226;2023-09-07T12:32:27;101846.78;;;31.24;41.04
76022;BME280;64718;52.124;6.226;2023-09-07T12:34:53;101832.75;;;31.37;40.79
76022;BME280;64718;52.124;6.226;2023-09-07T12:37:20;101841.28;;;31.40;40.57
76022;BME280;64718;52.124;6.226;2023-09-07T12:39:48;101840.59;;;31.46;40.46
76022;BME280;64718;52.124;6.226;2023-09-07T12:42:15;101840.88;;;31.29;37.27
76022;BME280;64718;52.124;6.226;2023-09-07T12:44:41;101834.84;;;31.19;40.04
76022;BME280;64718;52.124;6.226;2023-09-07T12:47:09;101824.00;;;31.35;38.87